Time,TemperatureF,DewpointF,PressureIn,WindDirection,WindDirectionDegrees,WindSpeedMPH,WindSpeedGustMPH,Humidity,HourlyPrecipIn,Conditions,Clouds,dailyrainin,SoftwareType,DateUTC
2013-03-28 00:04:00,36.9,32.0,29.50,SW,233,0.0,0.0,41,0.00,,,-99.99,wx200d/1.3,2013-03-28 04:04:00,
2013-03-28 00:09:00,36.7,32.0,29.50,SW,233,0.0,0.0,41,0.00,,,-99.99,wx200d/1.3,2013-03-28 04:09:00,
2013-03-28 00:14:00,36.7,32.0,29.50,SW,233,0.0,0.0,42,0.00,,,-99.99,wx200d/1.3,2013-03-28 04:14:00,
2013-03-28 00:19:00,36.7,32.0,29.50,SW,233,0.0,0.0,42,0.00,,,-99.99,wx200d/1.3,2013-03-28 04:19:00,
2013-03-28 00:24:00,36.7,32.0,29.50,SW,233,0.0,0.0,42,0.00,,,-99.99,wx200d/1.3,2013-03-28 04:24:00,
2013-03-28 00:29:00,36.5,32.0,29.50,SW,233,0.0,0.0,43,0.00,,,-99.99,wx200d/1.3,2013-03-28 04:29:00,
2013-03-28 00:34:00,36.3,32.0,29.50,SW,233,0.0,0.0,43,0.00,,,-99.99,wx200d/1.3,2013-03-28 04:34:00,
2013-03-28 00:39:00,36.3,32.0,29.50,SW,233,0.0,0.0,43,0.00,,,-99.99,wx200d/1.3,2013-03-28 04:39:00,
2013-03-28 00:44:00,36.3,32.0,29.50,SSE,156,0.0,0.0,44,0.00,,,-99.99,wx200d/1.3,2013-03-28 04:44:00,
2013-03-28 00:49:00,36.3,32.0,29.50,SSE,158,0.0,0.0,44,0.00,,,-99.99,wx200d/1.3,2013-03-28 04:49:00,
2013-03-28 00:54:00,36.3,32.0,29.50,SSE,158,0.0,0.0,44,0.00,,,-99.99,wx200d/1.3,2013-03-28 04:54:00,
2013-03-28 00:59:00,36.3,32.0,29.50,SSE,158,0.0,0.0,44,0.00,,,-99.99,wx200d/1.3,2013-03-28 04:59:00,
2013-03-28 01:04:00,36.1,32.0,29.50,SSE,158,0.0,0.0,44,0.00,,,-99.99,wx200d/1.3,2013-03-28 05:04:00,
2013-03-28 01:09:00,36.0,32.0,29.50,SSE,158,0.0,0.0,44,0.00,,,-99.99,wx200d/1.3,2013-03-28 05:09:00,
2013-03-28 01:14:00,36.0,32.0,29.50,SSE,158,0.0,0.0,44,0.00,,,-99.99,wx200d/1.3,2013-03-28 05:14:00,
2013-03-28 01:19:00,35.8,32.0,29.50,SSE,158,0.0,0.0,44,0.00,,,-99.99,wx200d/1.3,2013-03-28 05:19:00,
2013-03-28 01:25:00,35.6,32.0,29.50,SSE,158,0.0,0.0,44,0.00,,,-99.99,wx200d/1.3,2013-03-28 05:25:00,
2013-03-28 01:30:00,35.6,32.0,29.50,SSE,158,0.0,0.0,44,0.00,,,-99.99,wx200d/1.3,2013-03-28 05:30:00,
2013-03-28 01:35:00,35.4,32.0,29.50,SSE,158,0.0,0.0,44,0.00,,,-99.99,wx200d/1.3,2013-03-28 05:35:00,
2013-03-28 01:40:00,35.2,32.0,29.50,SSE,158,0.0,0.0,44,0.00,,,-99.99,wx200d/1.3,2013-03-28 05:40:00,
2013-03-28 01:45:00,35.1,32.0,29.50,SSE,158,0.0,0.0,44,0.00,,,-99.99,wx200d/1.3,2013-03-28 05:45:00,
2013-03-28 01:50:00,34.9,32.0,29.50,SSE,158,0.0,0.0,44,0.00,,,-99.99,wx200d/1.3,2013-03-28 05:50:00,
2013-03-28 01:55:00,34.7,32.0,29.50,SE,131,0.0,0.0,46,0.00,,,-99.99,wx200d/1.3,2013-03-28 05:55:00,
2013-03-28 02:00:00,34.5,32.0,29.50,ESE,115,0.0,0.0,47,0.00,,,-99.99,wx200d/1.3,2013-03-28 06:00:00,
2013-03-28 02:05:00,34.5,32.0,29.50,ESE,115,0.0,0.0,48,0.00,,,-99.99,wx200d/1.3,2013-03-28 06:05:00,
2013-03-28 02:10:00,34.7,32.0,29.50,ESE,115,0.0,0.0,48,0.00,,,-99.99,wx200d/1.3,2013-03-28 06:10:00,
2013-03-28 02:15:00,34.9,32.0,29.50,ESE,114,0.0,0.0,48,0.00,,,-99.99,wx200d/1.3,2013-03-28 06:15:00,
2013-03-28 02:20:00,35.1,32.0,29.50,SSW,213,0.0,0.0,48,0.00,,,-99.99,wx200d/1.3,2013-03-28 06:20:00,
2013-03-28 02:25:00,35.1,32.0,29.50,SSW,213,0.0,0.0,48,0.00,,,-99.99,wx200d/1.3,2013-03-28 06:25:00,
2013-03-28 02:30:00,35.2,32.0,29.50,West,260,3.1,4.0,47,0.00,,,-99.99,wx200d/1.3,2013-03-28 06:30:00,
2013-03-28 02:35:00,35.4,32.0,29.50,West,260,0.0,0.0,48,0.00,,,-99.99,wx200d/1.3,2013-03-28 06:35:00,
2013-03-28 02:40:00,36.0,32.0,29.50,West,278,5.8,6.7,49,0.00,,,-99.99,wx200d/1.3,2013-03-28 06:40:00,
2013-03-28 02:45:00,36.5,32.0,29.50,SW,227,3.6,7.4,47,0.00,,,-99.99,wx200d/1.3,2013-03-28 06:45:00,
2013-03-28 02:50:00,36.5,32.0,29.50,SW,229,0.0,4.0,46,0.00,,,-99.99,wx200d/1.3,2013-03-28 06:50:00,
2013-03-28 02:55:00,36.5,32.0,29.50,South,190,0.0,0.0,46,0.00,,,-99.99,wx200d/1.3,2013-03-28 06:55:00,
2013-03-28 03:00:00,36.5,32.0,29.50,SSW,204,0.0,0.0,45,0.00,,,-99.99,wx200d/1.3,2013-03-28 07:00:00,
2013-03-28 03:05:00,36.7,32.0,29.47,SSW,193,0.0,4.0,45,0.00,,,-99.99,wx200d/1.3,2013-03-28 07:05:00,
2013-03-28 03:10:00,36.7,32.0,29.47,SSW,193,0.0,4.0,46,0.00,,,-99.99,wx200d/1.3,2013-03-28 07:10:00,
2013-03-28 03:15:00,36.7,32.0,29.47,SSW,193,0.0,0.0,46,0.00,,,-99.99,wx200d/1.3,2013-03-28 07:15:00,
2013-03-28 03:20:00,36.9,32.0,29.47,SW,218,0.0,0.0,46,0.00,,,-99.99,wx200d/1.3,2013-03-28 07:20:00,
2013-03-28 03:26:00,36.9,32.0,29.47,SW,218,0.0,0.0,46,0.00,,,-99.99,wx200d/1.3,2013-03-28 07:26:00,
2013-03-28 03:31:00,36.9,32.0,29.47,SW,218,0.0,3.1,46,0.00,,,-99.99,wx200d/1.3,2013-03-28 07:31:00,
2013-03-28 03:36:00,36.9,32.0,29.47,WSW,245,0.0,0.0,47,0.00,,,-99.99,wx200d/1.3,2013-03-28 07:36:00,
2013-03-28 03:41:00,36.9,32.0,29.47,WSW,250,0.0,0.0,49,0.00,,,-99.99,wx200d/1.3,2013-03-28 07:41:00,
2013-03-28 03:47:00,36.9,32.0,29.47,WSW,248,0.0,0.0,49,0.00,,,-99.99,wx200d/1.3,2013-03-28 07:47:00,
2013-03-28 03:52:00,36.9,32.0,29.47,West,261,4.5,6.9,49,0.00,,,-99.99,wx200d/1.3,2013-03-28 07:52:00,
2013-03-28 03:57:00,36.9,32.0,29.47,West,259,5.4,7.8,48,0.00,,,-99.99,wx200d/1.3,2013-03-28 07:57:00,
2013-03-28 04:02:00,37.0,32.0,29.47,West,265,5.4,8.7,46,0.00,,,-99.99,wx200d/1.3,2013-03-28 08:02:00,
2013-03-28 04:07:00,36.9,32.0,29.47,WSW,257,0.0,6.3,46,0.00,,,-99.99,wx200d/1.3,2013-03-28 08:07:00,
2013-03-28 04:12:00,36.7,32.0,29.47,WSW,254,5.8,7.4,47,0.00,,,-99.99,wx200d/1.3,2013-03-28 08:12:00,
2013-03-28 04:17:00,36.5,32.0,29.47,WSW,252,6.3,6.9,48,0.00,,,-99.99,wx200d/1.3,2013-03-28 08:17:00,
2013-03-28 04:22:00,36.3,32.0,29.47,WSW,254,6.3,6.9,48,0.00,,,-99.99,wx200d/1.3,2013-03-28 08:22:00,
2013-03-28 04:27:00,36.1,32.0,29.47,WSW,256,6.3,6.9,49,0.00,,,-99.99,wx200d/1.3,2013-03-28 08:27:00,
2013-03-28 04:32:00,36.1,32.0,29.47,WSW,256,6.9,7.8,49,0.00,,,-99.99,wx200d/1.3,2013-03-28 08:32:00,
2013-03-28 04:37:00,36.1,32.0,29.47,West,261,6.9,8.7,49,0.00,,,-99.99,wx200d/1.3,2013-03-28 08:37:00,
2013-03-28 04:42:00,36.1,32.0,29.47,West,261,7.4,9.2,50,0.00,,,-99.99,wx200d/1.3,2013-03-28 08:42:00,
2013-03-28 04:47:00,36.0,32.0,29.47,West,271,6.3,8.3,50,0.00,,,-99.99,wx200d/1.3,2013-03-28 08:47:00,
2013-03-28 04:52:00,35.8,32.0,29.47,West,265,6.3,6.9,50,0.00,,,-99.99,wx200d/1.3,2013-03-28 08:52:00,
2013-03-28 04:57:00,35.8,32.0,29.47,West,259,5.4,7.4,50,0.00,,,-99.99,wx200d/1.3,2013-03-28 08:57:00,
2013-03-28 05:02:00,35.6,32.0,29.47,West,266,5.8,6.9,50,0.00,,,-99.99,wx200d/1.3,2013-03-28 09:02:00,
2013-03-28 05:07:00,35.6,32.0,29.47,West,260,5.8,7.4,51,0.00,,,-99.99,wx200d/1.3,2013-03-28 09:07:00,
2013-03-28 05:12:00,35.4,32.0,29.47,West,269,0.0,5.4,51,0.00,,,-99.99,wx200d/1.3,2013-03-28 09:12:00,
2013-03-28 05:17:00,35.4,32.0,29.47,WSW,258,0.0,0.0,51,0.00,,,-99.99,wx200d/1.3,2013-03-28 09:17:00,
2013-03-28 05:22:00,35.4,32.0,29.47,West,273,4.0,5.8,51,0.00,,,-99.99,wx200d/1.3,2013-03-28 09:22:00,
2013-03-28 05:27:00,35.4,32.0,29.47,West,275,0.0,6.7,51,0.00,,,-99.99,wx200d/1.3,2013-03-28 09:27:00,
2013-03-28 05:33:00,35.4,32.0,29.47,West,275,0.0,0.0,52,0.00,,,-99.99,wx200d/1.3,2013-03-28 09:33:00,
2013-03-28 05:38:00,35.4,32.0,29.47,West,275,0.0,0.0,52,0.00,,,-99.99,wx200d/1.3,2013-03-28 09:38:00,
2013-03-28 05:43:00,35.4,32.0,29.47,West,275,0.0,0.0,52,0.00,,,-99.99,wx200d/1.3,2013-03-28 09:43:00,
2013-03-28 05:48:00,35.2,32.0,29.47,West,275,0.0,0.0,51,0.00,,,-99.99,wx200d/1.3,2013-03-28 09:48:00,
2013-03-28 05:53:00,35.1,32.0,29.47,West,275,0.0,0.0,51,0.00,,,-99.99,wx200d/1.3,2013-03-28 09:53:00,
2013-03-28 05:58:00,34.7,32.0,29.47,ESE,114,0.0,0.0,51,0.00,,,-99.99,wx200d/1.3,2013-03-28 09:58:00,
2013-03-28 06:03:00,34.5,32.0,29.47,ESE,114,0.0,0.0,53,0.00,,,-99.99,wx200d/1.3,2013-03-28 10:03:00,
2013-03-28 06:08:00,34.5,32.0,29.47,East,101,3.6,4.9,54,0.00,,,-99.99,wx200d/1.3,2013-03-28 10:08:00,
2013-03-28 06:13:00,34.7,32.0,29.47,ESE,116,4.0,5.4,56,0.00,,,-99.99,wx200d/1.3,2013-03-28 10:13:00,
2013-03-28 06:18:00,35.1,32.0,29.47,ESE,112,0.0,4.5,56,0.00,,,-99.99,wx200d/1.3,2013-03-28 10:18:00,
2013-03-28 06:23:00,35.1,32.0,29.47,ESE,111,0.0,4.0,56,0.00,,,-99.99,wx200d/1.3,2013-03-28 10:23:00,
2013-03-28 06:28:00,35.1,32.0,29.47,ESE,111,0.0,0.0,56,0.00,,,-99.99,wx200d/1.3,2013-03-28 10:28:00,
2013-03-28 06:33:00,35.4,32.0,29.47,ESE,111,0.0,0.0,56,0.00,,,-99.99,wx200d/1.3,2013-03-28 10:33:00,
2013-03-28 06:38:00,35.4,32.0,29.47,ESE,110,0.0,0.0,56,0.00,,,-99.99,wx200d/1.3,2013-03-28 10:38:00,
2013-03-28 06:43:00,35.6,32.0,29.47,ESE,111,0.0,0.0,56,0.00,,,-99.99,wx200d/1.3,2013-03-28 10:43:00,
2013-03-28 06:48:00,35.6,32.0,29.47,ESE,111,0.0,0.0,55,0.00,,,-99.99,wx200d/1.3,2013-03-28 10:48:00,
2013-03-28 06:53:00,35.6,32.0,29.47,ESE,111,0.0,0.0,55,0.00,,,-99.99,wx200d/1.3,2013-03-28 10:53:00,
2013-03-28 06:58:00,35.6,32.0,29.47,ESE,110,0.0,0.0,55,0.00,,,-99.99,wx200d/1.3,2013-03-28 10:58:00,
2013-03-28 07:03:00,35.8,32.0,29.47,ESE,111,0.0,0.0,55,0.00,,,-99.99,wx200d/1.3,2013-03-28 11:03:00,
2013-03-28 07:09:00,35.8,32.0,29.47,ESE,110,0.0,0.0,55,0.00,,,-99.99,wx200d/1.3,2013-03-28 11:09:00,
2013-03-28 07:14:00,36.0,32.0,29.47,SE,143,0.0,0.0,54,0.00,,,-99.99,wx200d/1.3,2013-03-28 11:14:00,
2013-03-28 07:19:00,36.1,32.0,29.50,SE,143,0.0,0.0,54,0.00,,,-99.99,wx200d/1.3,2013-03-28 11:19:00,
2013-03-28 07:24:00,36.1,32.0,29.50,SW,220,0.0,0.0,53,0.00,,,-99.99,wx200d/1.3,2013-03-28 11:24:00,
2013-03-28 07:29:00,36.1,32.0,29.50,SW,220,0.0,0.0,52,0.00,,,-99.99,wx200d/1.3,2013-03-28 11:29:00,
2013-03-28 07:34:00,36.1,32.0,29.50,SW,231,0.0,0.0,52,0.00,,,-99.99,wx200d/1.3,2013-03-28 11:34:00,
2013-03-28 07:39:00,36.1,32.0,29.50,WSW,241,0.0,0.0,52,0.00,,,-99.99,wx200d/1.3,2013-03-28 11:39:00,
2013-03-28 07:44:00,36.0,32.0,29.50,WSW,241,0.0,0.0,53,0.00,,,-99.99,wx200d/1.3,2013-03-28 11:44:00,
2013-03-28 07:49:00,36.0,32.0,29.50,WSW,248,0.0,0.0,54,0.00,,,-99.99,wx200d/1.3,2013-03-28 11:49:00,
2013-03-28 07:54:00,36.1,32.0,29.50,WSW,248,0.0,0.0,56,0.00,,,-99.99,wx200d/1.3,2013-03-28 11:54:00,
2013-03-28 07:59:00,36.3,32.0,29.50,WSW,255,0.0,0.0,57,0.00,,,-99.99,wx200d/1.3,2013-03-28 11:59:00,
2013-03-28 08:04:00,36.7,32.0,29.50,WSW,244,0.0,5.8,55,0.00,,,-99.99,wx200d/1.3,2013-03-28 12:04:00,
2013-03-28 08:09:00,36.7,32.0,29.50,WSW,252,0.0,0.0,55,0.00,,,-99.99,wx200d/1.3,2013-03-28 12:09:00,
2013-03-28 08:14:00,36.7,32.0,29.50,WSW,247,0.0,0.0,54,0.00,,,-99.99,wx200d/1.3,2013-03-28 12:14:00,
2013-03-28 08:19:00,36.9,32.0,29.50,WSW,250,0.0,3.6,54,0.00,,,-99.99,wx200d/1.3,2013-03-28 12:19:00,
2013-03-28 08:24:00,36.9,32.0,29.50,West,270,0.0,4.5,54,0.00,,,-99.99,wx200d/1.3,2013-03-28 12:24:00,
2013-03-28 08:29:00,37.2,32.0,29.50,WNW,290,0.0,4.9,53,0.00,,,-99.99,wx200d/1.3,2013-03-28 12:29:00,
2013-03-28 08:34:00,37.4,32.0,29.50,West,271,5.8,7.4,52,0.00,,,-99.99,wx200d/1.3,2013-03-28 12:34:00,
2013-03-28 08:39:00,37.6,32.0,29.50,WNW,291,7.4,8.7,51,0.00,,,-99.99,wx200d/1.3,2013-03-28 12:39:00,
2013-03-28 08:44:00,37.6,32.0,29.50,West,279,6.3,8.3,51,0.00,,,-99.99,wx200d/1.3,2013-03-28 12:44:00,
2013-03-28 08:49:00,37.8,32.0,29.50,WNW,283,6.7,8.3,52,0.00,,,-99.99,wx200d/1.3,2013-03-28 12:49:00,
2013-03-28 08:54:00,37.9,32.0,29.50,WNW,298,6.7,7.8,51,0.00,,,-99.99,wx200d/1.3,2013-03-28 12:54:00,
2013-03-28 08:59:00,37.9,32.0,29.50,West,269,7.4,9.2,51,0.00,,,-99.99,wx200d/1.3,2013-03-28 12:59:00,
2013-03-28 09:04:00,37.9,32.0,29.50,WNW,286,6.9,9.6,51,0.00,,,-99.99,wx200d/1.3,2013-03-28 13:04:00,
2013-03-28 09:09:00,38.1,32.0,29.50,West,276,6.7,9.6,51,0.00,,,-99.99,wx200d/1.3,2013-03-28 13:09:00,
2013-03-28 09:14:00,38.3,32.0,29.50,West,281,7.8,9.2,51,0.00,,,-99.99,wx200d/1.3,2013-03-28 13:14:00,
2013-03-28 09:19:00,38.5,32.0,29.50,West,271,8.7,10.1,51,0.00,,,-99.99,wx200d/1.3,2013-03-28 13:19:00,
2013-03-28 09:24:00,38.7,32.0,29.50,West,267,6.9,8.7,51,0.00,,,-99.99,wx200d/1.3,2013-03-28 13:24:00,
2013-03-28 09:29:00,38.8,32.0,29.50,WNW,282,6.9,10.1,51,0.00,,,-99.99,wx200d/1.3,2013-03-28 13:29:00,
2013-03-28 09:34:00,39.0,32.0,29.50,WNW,292,6.3,9.2,51,0.00,,,-99.99,wx200d/1.3,2013-03-28 13:34:00,
2013-03-28 09:39:00,39.2,32.0,29.50,West,273,7.8,11.2,51,0.00,,,-99.99,wx200d/1.3,2013-03-28 13:39:00,
2013-03-28 09:44:00,39.6,32.0,29.50,NW,317,6.9,10.5,51,0.00,,,-99.99,wx200d/1.3,2013-03-28 13:44:00,
2013-03-28 09:49:00,39.9,32.0,29.50,WNW,286,7.8,9.2,51,0.00,,,-99.99,wx200d/1.3,2013-03-28 13:49:00,
2013-03-28 09:54:00,40.1,32.0,29.50,WNW,283,12.1,14.3,50,0.00,,,-99.99,wx200d/1.3,2013-03-28 13:54:00,
2013-03-28 09:59:00,40.5,32.0,29.50,NW,321,7.4,13.0,50,0.00,,,-99.99,wx200d/1.3,2013-03-28 13:59:00,
2013-03-28 10:04:00,40.6,32.0,29.50,NW,304,6.9,12.1,50,0.00,,,-99.99,wx200d/1.3,2013-03-28 14:04:00,
2013-03-28 10:09:00,40.8,32.0,29.50,WNW,294,9.2,14.8,49,0.00,,,-99.99,wx200d/1.3,2013-03-28 14:09:00,
2013-03-28 10:14:00,40.8,32.0,29.50,WNW,301,8.7,14.8,48,0.00,,,-99.99,wx200d/1.3,2013-03-28 14:14:00,
2013-03-28 10:19:00,41.2,32.0,29.50,West,267,9.2,13.9,48,0.00,,,-99.99,wx200d/1.3,2013-03-28 14:19:00,
2013-03-28 10:24:00,41.4,32.0,29.50,NW,318,9.6,13.0,47,0.00,,,-99.99,wx200d/1.3,2013-03-28 14:24:00,
2013-03-28 10:29:00,41.4,32.0,29.50,WNW,302,9.6,12.5,45,0.00,,,-99.99,wx200d/1.3,2013-03-28 14:29:00,
2013-03-28 10:34:00,41.5,32.0,29.53,NNE,15,10.5,13.9,44,0.00,,,-99.99,wx200d/1.3,2013-03-28 14:34:00,
2013-03-28 10:39:00,41.5,32.0,29.53,NW,318,10.1,13.9,43,0.00,,,-99.99,wx200d/1.3,2013-03-28 14:39:00,
2013-03-28 10:44:00,41.7,32.0,29.53,North,351,10.1,14.8,42,0.00,,,-99.99,wx200d/1.3,2013-03-28 14:44:00,
2013-03-28 10:49:00,42.1,32.0,29.53,NNW,339,9.2,14.3,40,0.00,,,-99.99,wx200d/1.3,2013-03-28 14:49:00,
2013-03-28 10:54:00,42.4,32.0,29.53,NNW,330,8.7,16.8,39,0.00,,,-99.99,wx200d/1.3,2013-03-28 14:54:00,
2013-03-28 10:59:00,42.6,32.0,29.53,NW,323,7.4,13.0,38,0.00,,,-99.99,wx200d/1.3,2013-03-28 14:59:00,
2013-03-28 11:04:00,42.8,32.0,29.53,WNW,297,8.3,14.3,39,0.00,,,-99.99,wx200d/1.3,2013-03-28 15:04:00,
2013-03-28 11:09:00,43.3,32.0,29.53,NW,317,3.6,13.4,39,0.00,,,-99.99,wx200d/1.3,2013-03-28 15:09:00,
2013-03-28 11:14:00,43.7,32.0,29.53,North,11,6.9,12.5,38,0.00,,,-99.99,wx200d/1.3,2013-03-28 15:14:00,
2013-03-28 11:19:00,44.2,32.0,29.53,WNW,297,9.2,13.0,37,0.00,,,-99.99,wx200d/1.3,2013-03-28 15:19:00,
2013-03-28 11:24:00,44.6,32.0,29.53,WNW,290,10.5,13.9,35,0.00,,,-99.99,wx200d/1.3,2013-03-28 15:24:00,
2013-03-28 11:29:00,44.2,32.0,29.53,WNW,302,8.3,13.4,35,0.00,,,-99.99,wx200d/1.3,2013-03-28 15:29:00,
2013-03-28 11:34:00,44.2,32.0,29.53,WNW,292,9.6,13.4,34,0.00,,,-99.99,wx200d/1.3,2013-03-28 15:34:00,
2013-03-28 11:39:00,45.3,32.0,29.53,NW,311,7.8,17.2,35,0.00,,,-99.99,wx200d/1.3,2013-03-28 15:39:00,
2013-03-28 11:44:00,45.5,32.0,29.53,NW,316,13.0,18.6,31,0.00,,,-99.99,wx200d/1.3,2013-03-28 15:44:00,
2013-03-28 11:49:00,44.8,32.0,29.50,NNW,334,11.0,18.6,31,0.00,,,-99.99,wx200d/1.3,2013-03-28 15:49:00,
2013-03-28 11:54:00,45.1,32.0,29.50,North,351,10.1,19.5,32,0.00,,,-99.99,wx200d/1.3,2013-03-28 15:54:00,
2013-03-28 11:59:00,45.1,32.0,29.50,NW,315,11.6,17.2,30,0.00,,,-99.99,wx200d/1.3,2013-03-28 15:59:00,
2013-03-28 12:04:00,45.5,32.0,29.53,NW,313,8.7,14.3,30,0.00,,,-99.99,wx200d/1.3,2013-03-28 16:04:00,
2013-03-28 12:09:00,46.6,32.0,29.53,WNW,303,6.9,11.6,30,0.00,,,-99.99,wx200d/1.3,2013-03-28 16:09:00,
2013-03-28 12:14:00,46.0,32.0,29.53,North,356,8.3,13.9,29,0.00,,,-99.99,wx200d/1.3,2013-03-28 16:14:00,
2013-03-28 12:20:00,45.7,32.0,29.53,WNW,294,8.3,16.3,29,0.00,,,-99.99,wx200d/1.3,2013-03-28 16:20:00,
2013-03-28 12:25:00,45.7,32.0,29.53,NNW,339,8.3,18.6,28,0.00,,,-99.99,wx200d/1.3,2013-03-28 16:25:00,
2013-03-28 12:30:00,45.9,32.0,29.53,NNW,347,11.0,16.3,29,0.00,,,-99.99,wx200d/1.3,2013-03-28 16:30:00,
2013-03-28 12:35:00,45.5,32.0,29.50,NNW,331,8.7,13.4,30,0.00,,,-99.99,wx200d/1.3,2013-03-28 16:35:00,
2013-03-28 12:40:00,45.3,32.0,29.50,NW,318,7.8,12.5,30,0.00,,,-99.99,wx200d/1.3,2013-03-28 16:40:00,
2013-03-28 12:45:00,45.1,32.0,29.50,NW,321,9.2,13.0,30,0.00,,,-99.99,wx200d/1.3,2013-03-28 16:45:00,
2013-03-28 12:50:00,44.8,32.0,29.53,NNW,328,10.1,12.1,30,0.00,,,-99.99,wx200d/1.3,2013-03-28 16:50:00,
2013-03-28 12:55:00,44.8,32.0,29.53,NNW,333,11.2,16.3,30,0.00,,,-99.99,wx200d/1.3,2013-03-28 16:55:00,
2013-03-28 13:00:00,45.0,32.0,29.53,North,356,10.5,14.8,30,0.00,,,-99.99,wx200d/1.3,2013-03-28 17:00:00,
2013-03-28 13:05:00,45.3,32.0,29.53,NNW,338,10.1,14.8,30,0.00,,,-99.99,wx200d/1.3,2013-03-28 17:05:00,
2013-03-28 13:10:00,45.7,32.0,29.53,NW,315,9.6,17.7,29,0.00,,,-99.99,wx200d/1.3,2013-03-28 17:10:00,
2013-03-28 13:15:00,45.9,32.0,29.53,North,356,9.2,17.2,29,0.00,,,-99.99,wx200d/1.3,2013-03-28 17:15:00,
2013-03-28 13:20:00,45.7,32.0,29.53,NNE,26,9.2,15.2,29,0.00,,,-99.99,wx200d/1.3,2013-03-28 17:20:00,
2013-03-28 13:25:00,45.3,32.0,29.53,NNW,332,9.6,15.2,29,0.00,,,-99.99,wx200d/1.3,2013-03-28 17:25:00,
2013-03-28 13:30:00,45.5,32.0,29.53,NW,323,11.0,13.0,30,0.00,,,-99.99,wx200d/1.3,2013-03-28 17:30:00,
2013-03-28 13:35:00,45.5,32.0,29.53,NNW,330,6.3,16.8,29,0.00,,,-99.99,wx200d/1.3,2013-03-28 17:35:00,
2013-03-28 13:40:00,46.0,32.0,29.53,NNW,329,8.7,13.4,29,0.00,,,-99.99,wx200d/1.3,2013-03-28 17:40:00,
2013-03-28 13:45:00,46.0,32.0,29.53,SSW,194,8.3,12.5,29,0.00,,,-99.99,wx200d/1.3,2013-03-28 17:45:00,
2013-03-28 13:50:00,46.0,32.0,29.53,NNW,329,8.3,12.1,29,0.00,,,-99.99,wx200d/1.3,2013-03-28 17:50:00,
2013-03-28 13:55:00,45.9,32.0,29.53,NW,318,10.5,17.7,29,0.00,,,-99.99,wx200d/1.3,2013-03-28 17:55:00,
2013-03-28 14:00:00,45.9,32.0,29.53,North,9,7.8,16.8,29,0.00,,,-99.99,wx200d/1.3,2013-03-28 18:00:00,
2013-03-28 14:05:00,45.9,32.0,29.53,NNW,341,9.6,12.5,29,0.00,,,-99.99,wx200d/1.3,2013-03-28 18:05:00,
2013-03-28 14:10:00,45.9,32.0,29.53,NW,307,6.7,13.4,29,0.00,,,-99.99,wx200d/1.3,2013-03-28 18:10:00,
2013-03-28 14:15:00,45.5,32.0,29.53,NW,313,7.4,11.2,28,0.00,,,-99.99,wx200d/1.3,2013-03-28 18:15:00,
2013-03-28 14:20:00,45.7,32.0,29.53,NNW,329,4.5,9.6,29,0.00,,,-99.99,wx200d/1.3,2013-03-28 18:20:00,
2013-03-28 14:25:00,45.9,32.0,29.53,WNW,299,5.8,9.2,29,0.00,,,-99.99,wx200d/1.3,2013-03-28 18:25:00,
2013-03-28 14:30:00,46.0,32.0,29.53,NNW,339,5.4,8.3,29,0.00,,,-99.99,wx200d/1.3,2013-03-28 18:30:00,
2013-03-28 14:35:00,46.0,32.0,29.53,North,356,6.7,9.2,29,0.00,,,-99.99,wx200d/1.3,2013-03-28 18:35:00,
2013-03-28 14:40:00,45.9,32.0,29.53,NW,315,7.8,12.5,29,0.00,,,-99.99,wx200d/1.3,2013-03-28 18:40:00,
2013-03-28 14:45:00,45.9,32.0,29.53,NW,316,8.3,12.5,29,0.00,,,-99.99,wx200d/1.3,2013-03-28 18:45:00,
2013-03-28 14:50:00,46.0,32.0,29.53,North,2,7.8,13.9,29,0.00,,,-99.99,wx200d/1.3,2013-03-28 18:50:00,
2013-03-28 14:55:00,46.2,32.0,29.53,NW,311,10.5,15.9,29,0.00,,,-99.99,wx200d/1.3,2013-03-28 18:55:00,
2013-03-28 15:00:00,46.4,32.0,29.53,NW,325,5.8,12.5,29,0.00,,,-99.99,wx200d/1.3,2013-03-28 19:00:00,
2013-03-28 15:05:00,46.8,32.0,29.53,NNW,339,8.3,13.9,29,0.00,,,-99.99,wx200d/1.3,2013-03-28 19:05:00,
2013-03-28 15:10:00,46.9,32.0,29.53,NNW,347,9.6,15.2,28,0.00,,,-99.99,wx200d/1.3,2013-03-28 19:10:00,
2013-03-28 15:15:00,46.9,32.0,29.53,NNW,339,7.8,14.3,28,0.00,,,-99.99,wx200d/1.3,2013-03-28 19:15:00,
2013-03-28 15:20:00,47.1,32.0,29.50,NNW,329,8.7,11.6,28,0.00,,,-99.99,wx200d/1.3,2013-03-28 19:20:00,
2013-03-28 15:25:00,47.1,32.0,29.50,NNW,328,7.4,13.9,28,0.00,,,-99.99,wx200d/1.3,2013-03-28 19:25:00,
2013-03-28 15:30:00,46.8,32.0,29.50,North,6,8.3,11.2,28,0.00,,,-99.99,wx200d/1.3,2013-03-28 19:30:00,
2013-03-28 15:35:00,46.4,32.0,29.50,NE,38,5.8,10.5,28,0.00,,,-99.99,wx200d/1.3,2013-03-28 19:35:00,
2013-03-28 15:40:00,46.4,32.0,29.50,NNE,13,6.3,9.2,28,0.00,,,-99.99,wx200d/1.3,2013-03-28 19:40:00,
2013-03-28 15:45:00,46.4,32.0,29.50,NNE,27,4.5,7.8,29,0.00,,,-99.99,wx200d/1.3,2013-03-28 19:45:00,
2013-03-28 15:50:00,46.2,32.0,29.53,NNW,343,9.2,12.1,28,0.00,,,-99.99,wx200d/1.3,2013-03-28 19:50:00,
2013-03-28 15:55:00,46.2,32.0,29.53,NW,326,6.3,11.2,29,0.00,,,-99.99,wx200d/1.3,2013-03-28 19:55:00,
2013-03-28 16:00:00,46.0,32.0,29.53,North,351,8.3,10.5,29,0.00,,,-99.99,wx200d/1.3,2013-03-28 20:00:00,
2013-03-28 16:05:00,45.7,32.0,29.53,NNW,331,7.4,11.6,30,0.00,,,-99.99,wx200d/1.3,2013-03-28 20:05:00,
2013-03-28 16:10:00,45.7,32.0,29.53,NW,322,5.4,9.6,31,0.00,,,-99.99,wx200d/1.3,2013-03-28 20:10:00,
2013-03-28 16:15:00,45.9,32.0,29.53,SW,235,4.5,8.7,31,0.00,,,-99.99,wx200d/1.3,2013-03-28 20:15:00,
2013-03-28 16:20:00,46.0,32.0,29.53,NNW,342,6.3,9.2,30,0.00,,,-99.99,wx200d/1.3,2013-03-28 20:20:00,
2013-03-28 16:26:00,46.2,32.0,29.53,NNW,338,4.5,8.7,29,0.00,,,-99.99,wx200d/1.3,2013-03-28 20:26:00,
2013-03-28 16:31:00,46.6,32.0,29.53,North,2,6.3,10.1,29,0.00,,,-99.99,wx200d/1.3,2013-03-28 20:31:00,
2013-03-28 16:36:00,46.9,32.0,29.53,North,351,6.9,11.6,28,0.00,,,-99.99,wx200d/1.3,2013-03-28 20:36:00,
2013-03-28 16:41:00,47.3,32.0,29.53,WNW,287,7.8,12.5,27,0.00,,,-99.99,wx200d/1.3,2013-03-28 20:41:00,
2013-03-28 16:46:00,47.5,32.0,29.53,NW,321,7.8,11.0,27,0.00,,,-99.99,wx200d/1.3,2013-03-28 20:46:00,
2013-03-28 16:51:00,47.7,32.0,29.53,NNW,343,6.3,11.0,27,0.00,,,-99.99,wx200d/1.3,2013-03-28 20:51:00,
2013-03-28 16:56:00,47.7,32.0,29.53,NW,319,6.9,10.5,27,0.00,,,-99.99,wx200d/1.3,2013-03-28 20:56:00,
2013-03-28 17:01:00,47.8,32.0,29.53,WNW,299,10.5,12.5,27,0.00,,,-99.99,wx200d/1.3,2013-03-28 21:01:00,
2013-03-28 17:06:00,47.7,32.0,29.53,North,3,6.9,11.2,27,0.00,,,-99.99,wx200d/1.3,2013-03-28 21:06:00,
2013-03-28 17:11:00,47.5,32.0,29.53,NNW,336,7.4,12.1,27,0.00,,,-99.99,wx200d/1.3,2013-03-28 21:11:00,
2013-03-28 17:16:00,47.3,32.0,29.53,West,278,6.3,9.6,27,0.00,,,-99.99,wx200d/1.3,2013-03-28 21:16:00,
2013-03-28 17:21:00,47.3,32.0,29.53,West,280,9.2,15.2,27,0.00,,,-99.99,wx200d/1.3,2013-03-28 21:21:00,
2013-03-28 17:26:00,47.1,32.0,29.53,West,277,12.1,15.2,27,0.00,,,-99.99,wx200d/1.3,2013-03-28 21:26:00,
2013-03-28 17:31:00,47.1,32.0,29.53,NW,305,9.6,13.9,27,0.00,,,-99.99,wx200d/1.3,2013-03-28 21:31:00,
2013-03-28 17:36:00,47.3,32.0,29.53,WNW,284,9.6,13.4,27,0.00,,,-99.99,wx200d/1.3,2013-03-28 21:36:00,
2013-03-28 17:41:00,47.7,32.0,29.53,NW,319,6.7,10.1,27,0.00,,,-99.99,wx200d/1.3,2013-03-28 21:41:00,
2013-03-28 17:46:00,48.0,32.0,29.53,NNW,336,10.1,13.0,27,0.00,,,-99.99,wx200d/1.3,2013-03-28 21:46:00,
2013-03-28 17:52:00,48.2,32.0,29.53,WNW,298,5.8,11.2,27,0.00,,,-99.99,wx200d/1.3,2013-03-28 21:52:00,
2013-03-28 17:57:00,47.8,32.0,29.53,WNW,299,10.1,13.4,27,0.00,,,-99.99,wx200d/1.3,2013-03-28 21:57:00,
2013-03-28 18:02:00,47.7,32.0,29.53,WNW,298,6.3,13.9,27,0.00,,,-99.99,wx200d/1.3,2013-03-28 22:02:00,
2013-03-28 18:07:00,47.7,32.0,29.53,WNW,285,6.9,12.5,27,0.00,,,-99.99,wx200d/1.3,2013-03-28 22:07:00,
2013-03-28 18:12:00,47.5,32.0,29.53,WNW,290,5.4,11.0,27,0.00,,,-99.99,wx200d/1.3,2013-03-28 22:12:00,
2013-03-28 18:17:00,47.3,32.0,29.53,WNW,287,6.3,10.5,27,0.00,,,-99.99,wx200d/1.3,2013-03-28 22:17:00,
2013-03-28 18:22:00,47.3,32.0,29.53,NNW,329,6.7,9.2,27,0.00,,,-99.99,wx200d/1.3,2013-03-28 22:22:00,
2013-03-28 18:27:00,47.3,32.0,29.53,West,276,6.3,12.5,27,0.00,,,-99.99,wx200d/1.3,2013-03-28 22:27:00,
2013-03-28 18:32:00,47.3,32.0,29.53,NW,307,9.6,11.0,27,0.00,,,-99.99,wx200d/1.3,2013-03-28 22:32:00,
2013-03-28 18:37:00,47.1,32.0,29.53,WNW,303,6.7,9.6,27,0.00,,,-99.99,wx200d/1.3,2013-03-28 22:37:00,
2013-03-28 18:42:00,46.9,32.0,29.53,WNW,285,6.9,11.2,27,0.00,,,-99.99,wx200d/1.3,2013-03-28 22:42:00,
2013-03-28 18:47:00,46.9,32.0,29.56,WNW,300,7.4,11.6,27,0.00,,,-99.99,wx200d/1.3,2013-03-28 22:47:00,
2013-03-28 18:52:00,46.8,32.0,29.56,West,272,6.3,9.6,28,0.00,,,-99.99,wx200d/1.3,2013-03-28 22:52:00,
2013-03-28 18:57:00,46.9,32.0,29.56,NW,314,7.4,14.8,27,0.00,,,-99.99,wx200d/1.3,2013-03-28 22:57:00,
2013-03-28 19:02:00,47.1,32.0,29.56,NW,313,8.3,12.5,27,0.00,,,-99.99,wx200d/1.3,2013-03-28 23:02:00,
2013-03-28 19:07:00,47.1,32.0,29.56,NNW,327,7.8,11.2,27,0.00,,,-99.99,wx200d/1.3,2013-03-28 23:07:00,
2013-03-28 19:12:00,47.1,32.0,29.56,NNW,334,10.5,13.4,27,0.00,,,-99.99,wx200d/1.3,2013-03-28 23:12:00,
2013-03-28 19:17:00,46.9,32.0,29.56,North,351,6.3,11.0,27,0.00,,,-99.99,wx200d/1.3,2013-03-28 23:17:00,
2013-03-28 19:22:00,46.9,32.0,29.56,NNW,332,6.7,11.0,27,0.00,,,-99.99,wx200d/1.3,2013-03-28 23:22:00,
2013-03-28 19:27:00,46.8,32.0,29.56,NW,323,5.4,7.8,27,0.00,,,-99.99,wx200d/1.3,2013-03-28 23:27:00,
2013-03-28 19:32:00,46.6,32.0,29.56,NNW,336,5.4,9.6,27,0.00,,,-99.99,wx200d/1.3,2013-03-28 23:32:00,
2013-03-28 19:37:00,46.6,32.0,29.56,NW,304,5.8,9.2,27,0.00,,,-99.99,wx200d/1.3,2013-03-28 23:37:00,
2013-03-28 19:42:00,46.4,32.0,29.56,NNW,342,5.8,7.8,27,0.00,,,-99.99,wx200d/1.3,2013-03-28 23:42:00,
2013-03-28 19:47:00,46.4,32.0,29.59,NW,318,7.8,13.4,27,0.00,,,-99.99,wx200d/1.3,2013-03-28 23:47:00,
2013-03-28 19:52:00,46.2,32.0,29.59,North,351,5.8,8.7,27,0.00,,,-99.99,wx200d/1.3,2013-03-28 23:52:00,
2013-03-28 19:57:00,46.2,32.0,29.59,NW,323,5.4,8.7,27,0.00,,,-99.99,wx200d/1.3,2013-03-28 23:57:00,
2013-03-28 20:02:00,46.2,32.0,29.59,WNW,303,4.0,6.9,27,0.00,,,-99.99,wx200d/1.3,2013-03-29 00:02:00,
2013-03-28 20:07:00,46.0,32.0,29.59,NNW,342,4.0,6.7,27,0.00,,,-99.99,wx200d/1.3,2013-03-29 00:07:00,
2013-03-28 20:12:00,46.0,32.0,29.59,NW,313,5.4,7.8,27,0.00,,,-99.99,wx200d/1.3,2013-03-29 00:12:00,
2013-03-28 20:17:00,46.0,32.0,29.59,NW,320,2.7,7.4,27,0.00,,,-99.99,wx200d/1.3,2013-03-29 00:17:00,
2013-03-28 20:22:00,45.9,32.0,29.59,NW,325,3.6,7.4,27,0.00,,,-99.99,wx200d/1.3,2013-03-29 00:22:00,
2013-03-28 20:27:00,45.7,32.0,29.59,WNW,295,0.0,5.8,27,0.00,,,-99.99,wx200d/1.3,2013-03-29 00:27:00,
2013-03-28 20:32:00,45.5,32.0,29.59,NW,326,2.7,6.3,28,0.00,,,-99.99,wx200d/1.3,2013-03-29 00:32:00,
2013-03-28 20:37:00,45.5,32.0,29.59,NNW,341,5.4,9.2,27,0.00,,,-99.99,wx200d/1.3,2013-03-29 00:37:00,
2013-03-28 20:42:00,45.7,32.0,29.59,NW,324,4.0,8.3,27,0.00,,,-99.99,wx200d/1.3,2013-03-29 00:42:00,
2013-03-28 20:48:00,45.7,32.0,29.59,NW,305,4.5,8.7,27,0.00,,,-99.99,wx200d/1.3,2013-03-29 00:48:00,
2013-03-28 20:53:00,45.7,32.0,29.59,NNW,330,4.9,8.7,27,0.00,,,-99.99,wx200d/1.3,2013-03-29 00:53:00,
2013-03-28 20:58:00,45.5,32.0,29.59,NNW,343,0.0,5.4,28,0.00,,,-99.99,wx200d/1.3,2013-03-29 00:58:00,
2013-03-28 21:03:00,45.5,32.0,29.59,NNW,333,5.8,7.8,28,0.00,,,-99.99,wx200d/1.3,2013-03-29 01:03:00,
2013-03-28 21:08:00,45.5,32.0,29.59,NW,306,7.4,9.6,28,0.00,,,-99.99,wx200d/1.3,2013-03-29 01:08:00,
2013-03-28 21:13:00,45.5,32.0,29.59,North,351,4.9,10.1,28,0.00,,,-99.99,wx200d/1.3,2013-03-29 01:13:00,
2013-03-28 21:18:00,45.3,32.0,29.59,NW,310,5.8,7.8,28,0.00,,,-99.99,wx200d/1.3,2013-03-29 01:18:00,
2013-03-28 21:23:00,45.3,32.0,29.59,NW,310,4.5,8.7,28,0.00,,,-99.99,wx200d/1.3,2013-03-29 01:23:00,
2013-03-28 21:28:00,45.3,32.0,29.59,WNW,287,4.5,6.9,28,0.00,,,-99.99,wx200d/1.3,2013-03-29 01:28:00,
2013-03-28 21:33:00,45.1,32.0,29.59,NW,321,4.9,8.3,28,0.00,,,-99.99,wx200d/1.3,2013-03-29 01:33:00,
2013-03-28 21:38:00,45.1,32.0,29.59,NW,308,4.5,6.3,28,0.00,,,-99.99,wx200d/1.3,2013-03-29 01:38:00,
2013-03-28 21:43:00,44.8,32.0,29.59,NW,320,4.9,6.9,28,0.00,,,-99.99,wx200d/1.3,2013-03-29 01:43:00,
2013-03-28 21:48:00,44.6,32.0,29.62,NW,307,0.0,5.8,29,0.00,,,-99.99,wx200d/1.3,2013-03-29 01:48:00,
2013-03-28 21:53:00,44.4,32.0,29.62,NW,313,3.1,7.4,29,0.00,,,-99.99,wx200d/1.3,2013-03-29 01:53:00,
2013-03-28 21:58:00,44.2,32.0,29.62,NNW,339,5.4,7.8,29,0.00,,,-99.99,wx200d/1.3,2013-03-29 01:58:00,
2013-03-28 22:03:00,44.2,32.0,29.62,WNW,294,4.5,6.9,30,0.00,,,-99.99,wx200d/1.3,2013-03-29 02:03:00,
2013-03-28 22:08:00,44.1,32.0,29.62,NW,312,0.0,4.5,30,0.00,,,-99.99,wx200d/1.3,2013-03-29 02:08:00,
2013-03-28 22:13:00,43.9,32.0,29.62,West,276,0.0,5.4,30,0.00,,,-99.99,wx200d/1.3,2013-03-29 02:13:00,
2013-03-28 22:18:00,44.1,32.0,29.62,NW,319,0.0,4.5,30,0.00,,,-99.99,wx200d/1.3,2013-03-29 02:18:00,
2013-03-28 22:23:00,44.1,32.0,29.62,NNW,333,2.7,8.3,29,0.00,,,-99.99,wx200d/1.3,2013-03-29 02:23:00,
2013-03-28 22:28:00,44.2,32.0,29.62,NW,319,0.0,6.9,29,0.00,,,-99.99,wx200d/1.3,2013-03-29 02:28:00,
2013-03-28 22:33:00,44.1,32.0,29.62,NW,312,4.5,6.3,29,0.00,,,-99.99,wx200d/1.3,2013-03-29 02:33:00,
2013-03-28 22:38:00,44.1,32.0,29.62,NW,312,4.0,7.8,29,0.00,,,-99.99,wx200d/1.3,2013-03-29 02:38:00,
2013-03-28 22:43:00,43.9,32.0,29.62,WNW,296,0.0,3.6,29,0.00,,,-99.99,wx200d/1.3,2013-03-29 02:43:00,
2013-03-28 22:48:00,43.9,32.0,29.62,West,275,0.0,4.0,29,0.00,,,-99.99,wx200d/1.3,2013-03-29 02:48:00,
2013-03-28 22:53:00,43.9,32.0,29.62,WNW,295,0.0,4.9,29,0.00,,,-99.99,wx200d/1.3,2013-03-29 02:53:00,
2013-03-28 22:58:00,43.5,32.0,29.62,NW,304,0.0,0.0,30,0.00,,,-99.99,wx200d/1.3,2013-03-29 02:58:00,
2013-03-28 23:03:00,43.5,32.0,29.62,NW,304,0.0,0.0,30,0.00,,,-99.99,wx200d/1.3,2013-03-29 03:03:00,
2013-03-28 23:08:00,43.5,32.0,29.62,WNW,296,0.0,4.0,30,0.00,,,-99.99,wx200d/1.3,2013-03-29 03:08:00,
2013-03-28 23:13:00,43.5,32.0,29.62,NW,315,0.0,0.0,30,0.00,,,-99.99,wx200d/1.3,2013-03-29 03:13:00,
2013-03-28 23:18:00,43.3,32.0,29.62,West,273,4.9,6.9,30,0.00,,,-99.99,wx200d/1.3,2013-03-29 03:18:00,
2013-03-28 23:23:00,43.0,32.0,29.62,NW,311,0.0,5.4,31,0.00,,,-99.99,wx200d/1.3,2013-03-29 03:23:00,
2013-03-28 23:28:00,42.8,32.0,29.62,NW,307,5.4,6.9,31,0.00,,,-99.99,wx200d/1.3,2013-03-29 03:28:00,
2013-03-28 23:33:00,42.8,32.0,29.62,WNW,302,5.8,7.4,31,0.00,,,-99.99,wx200d/1.3,2013-03-29 03:33:00,
2013-03-28 23:38:00,43.0,32.0,29.62,NW,313,5.4,7.8,31,0.00,,,-99.99,wx200d/1.3,2013-03-29 03:38:00,
2013-03-28 23:43:00,43.0,32.0,29.62,NW,325,0.0,6.7,30,0.00,,,-99.99,wx200d/1.3,2013-03-29 03:43:00,
2013-03-28 23:48:00,43.0,32.0,29.62,West,276,6.3,9.2,30,0.00,,,-99.99,wx200d/1.3,2013-03-29 03:48:00,
2013-03-28 23:54:00,43.2,32.0,29.62,WNW,292,0.0,8.7,30,0.00,,,-99.99,wx200d/1.3,2013-03-29 03:54:00,
2013-03-28 23:59:00,43.3,32.0,29.62,NW,307,5.4,8.7,30,0.00,,,-99.99,wx200d/1.3,2013-03-29 03:59:00,